Home > Products > Valid Products > MTR

000
SAUS45 KABQ 280400 COR
MTRCQC
METAR KCQC 280353Z AUTO 29010KT 10SM CLR 03/M01 A3024 RMK AO2 SLP213
T00331006





000
SAUS45 KABQ 280359 COR
MTRCQC
METAR KCQC 280353Z AUTO 29010KT 10SM CLR 03/M01 A3024 RMK AO2 SLP213
T00331006





000
SAUS45 KABQ 280358 COR
MTRCQC
METAR KCQC 280353Z AUTO 29010KT 10SM CLR 03/M01 A3024 RMK AO2 SLP213
T00331006





000
SAUS45 KABQ 280356 COR
MTRCQC
METAR KCQC 280353Z AUTO 29010KT 10SM CLR 03/M01 A3024 RMK AO2 SLP213
T00331006





000
SAUS45 KABQ 280355
MTRCQC
METAR KCQC 280353Z AUTO 29010KT 10SM CLR 03/M01 A3024 RMK AO2 SLP213
T00331006





000
SAUS45 KABQ 280355 COR
MTRCQC
METAR KCQC 280353Z AUTO 29010KT 10SM CLR 03/M01 A3024 RMK AO2 SLP213
T00331006





000
SAUS45 KABQ 280354
MTRTCS
METAR KTCS 280353Z AUTO 31005KT 10SM CLR 10/02 A3023 RMK AO2 SLP203
T01000022 TSNO





000
SAUS45 KABQ 280353
MTRABQ
METAR KABQ 280352Z 13003KT 10SM FEW250 07/M02 A3025 RMK AO2 SLP237
T00671022





000
SAUS45 KABQ 280259 COR
MTRCQC
METAR KCQC 280253Z AUTO 30011KT 10SM CLR 04/M01 A3025 RMK AO2 SLP226
T00441006 50002





000
SAUS45 KABQ 280259 COR
MTRCQC
METAR KCQC 280253Z AUTO 30011KT 10SM CLR 04/M01 A3025 RMK AO2 SLP226
T00441006 50002





000
SAUS45 KABQ 280258 COR
MTRCQC
METAR KCQC 280253Z AUTO 30011KT 10SM CLR 04/M01 A3025 RMK AO2 SLP226
T00441006 50002





000
SAUS45 KABQ 280258 COR
MTRCQC
METAR KCQC 280253Z AUTO 30011KT 10SM CLR 04/M01 A3025 RMK AO2 SLP226
T00441006 50002





000
SAUS45 KABQ 280256 COR
MTRCQC
METAR KCQC 280253Z AUTO 30011KT 10SM CLR 04/M01 A3025 RMK AO2 SLP226
T00441006 50002





000
SAUS45 KABQ 280256 COR
MTRCQC
METAR KCQC 280253Z AUTO 30011KT 10SM CLR 04/M01 A3025 RMK AO2 SLP226
T00441006 50002





000
SAUS45 KABQ 280255 COR
MTRCQC
METAR KCQC 280253Z AUTO 30011KT 10SM CLR 04/M01 A3025 RMK AO2 SLP226
T00441006 50002





000
SAUS45 KABQ 280255 COR
MTRCQC
METAR KCQC 280253Z AUTO 30011KT 10SM CLR 04/M01 A3025 RMK AO2 SLP226
T00441006 50002





000
SAUS45 KABQ 280254
MTRCQC
METAR KCQC 280253Z AUTO 30011KT 10SM CLR 04/M01 A3025 RMK AO2 SLP226
T00441006 50002





000
SAUS45 KABQ 280254
MTRTCS
METAR KTCS 280253Z AUTO 34005KT 10SM CLR 12/03 A3022 RMK AO2 SLP201
T01220028 53004 TSNO





000
SAUS45 KABQ 280254
MTRTCS
METAR KTCS 280253Z AUTO 34005KT 10SM CLR 12/03 A3022 RMK AO2 SLP201
T01220028 53004 TSNO





000
SAUS45 KABQ 280254
MTRCQC
METAR KCQC 280253Z AUTO 30011KT 10SM CLR 04/M01 A3025 RMK AO2 SLP226
T00441006 50002





000
SAUS45 KABQ 280253
MTRABQ
METAR KABQ 280252Z 17003KT 10SM FEW250 06/M02 A3026 RMK AO2 SLP250
T00611022 53004





000
SAUS45 KABQ 280253
MTRABQ
METAR KABQ 280252Z 17003KT 10SM FEW250 06/M02 A3026 RMK AO2 SLP250
T00611022 53004





000
SAUS45 KABQ 280154
MTRTCS
METAR KTCS 280153Z AUTO 00000KT 10SM CLR 14/03 A3022 RMK AO2 SLP197
T01440028 TSNO





000
SAUS45 KABQ 280154
MTRCQC
METAR KCQC 280153Z AUTO 29012KT 10SM CLR 05/M01 A3026 RMK AO2 SLP225
T00501011





000
SAUS45 KABQ 280153
MTRABQ
METAR KABQ 280152Z 26003KT 10SM FEW075 FEW300 11/M02 A3025 RMK AO2
SLP229 T01111017





000
SAUS45 KABQ 280055
MTRTCS
METAR KTCS 280053Z AUTO 20004KT 10SM CLR 16/03 A3021 RMK AO2 SLP190
T01610028 TSNO





000
SAUS45 KABQ 280054
MTRCQC
METAR KCQC 280053Z AUTO 28015KT 10SM CLR 08/01 A3025 RMK AO2 SLP215
T00780006





000
SAUS45 KABQ 280053
MTRABQ
METAR KABQ 280052Z 00000KT 10SM FEW075 FEW300 13/M02 A3025 RMK AO2
SLP220 T01331022





000
SAUS45 KABQ 272354
MTRCQC
METAR KCQC 272353Z AUTO 28010KT 10SM CLR 11/00 A3024 RMK AO2 SLP207
T01110000 10139 20111 56006





000
SAUS45 KABQ 272354
MTRTCS
METAR KTCS 272353Z AUTO 18004KT 10SM CLR 18/03 A3021 RMK AO2 SLP185
T01830033 10189 20133 56009 TSNO





000
SAUS45 KABQ 272353
MTRABQ
METAR KABQ 272352Z 00000KT 10SM FEW075 FEW300 16/M02 A3024 RMK AO2
SLP215 T01561022 10161 20072 58008





000
SAUS45 KABQ 272254
MTRCQC
METAR KCQC 272253Z AUTO 28015KT 10SM CLR 13/01 A3025 RMK AO2 SLP194
T01330006





000
SAUS45 KABQ 272254
MTRTCS
METAR KTCS 272253Z AUTO 19004KT 10SM CLR 18/02 A3022 RMK AO2 SLP188
T01830022 TSNO





000
SAUS45 KABQ 272253
MTRABQ
METAR KABQ 272252Z 24003KT 10SM FEW075 FEW300 15/M03 A3026 RMK AO2
SLP216 T01501028





000
SAUS45 KABQ 272154
MTRCQC
METAR KCQC 272153Z AUTO 27014G23KT 10SM CLR 14/M01 A3025 RMK AO2
SLP191 T01391006





000
SAUS45 KABQ 272154
MTRTCS
METAR KTCS 272153Z AUTO 00000KT 10SM CLR 18/02 A3022 RMK AO2 SLP191
T01830022 TSNO





000
SAUS45 KABQ 272153
MTRABQ
METAR KABQ 272152Z 00000KT 10SM FEW060 FEW075 14/M04 A3026 RMK AO2
SLP219 T01441039





000
SAUS45 KABQ 272054
MTRCQC
METAR KCQC 272053Z AUTO 28012KT 10SM CLR 13/M01 A3027 RMK AO2 SLP209
T01331006 56024





000
SAUS45 KABQ 272054
MTRTCS
METAR KTCS 272053Z AUTO 18004KT 10SM CLR 17/02 A3024 RMK AO2 SLP199
T01720022 56028 TSNO





000
SAUS45 KABQ 272053
MTRABQ
METAR KABQ 272052Z 00000KT 10SM FEW060 BKN075 13/M03 A3027 RMK AO2
SLP227 T01331028 56033





000
SAUS45 KABQ 271954
MTRTCS
METAR KTCS 271953Z AUTO 15006KT 10SM CLR 17/02 A3027 RMK AO2 SLP211
T01670017 TSNO





000
SAUS45 KABQ 271954
MTRCQC
METAR KCQC 271953Z AUTO 27014KT 10SM CLR 13/M02 A3029 RMK AO2 SLP214
T01281022





000
SAUS45 KABQ 271952
MTRABQ
METAR KABQ 271952Z 00000KT 10SM BKN070 13/M02 A3031 RMK AO2 SLP242
T01281022





000
SAUS45 KABQ 271858 COR
MTRTCS
METAR KTCS 271853Z AUTO VRB05KT 10SM CLR 15/M02 A3031 RMK AO2 SLP222
T01501022 TSNO





000
SAUS45 KABQ 271854
MTRCQC
METAR KCQC 271853Z AUTO 29013KT 10SM CLR 12/M03 A3032 RMK AO2 SLP223
T01221033





000
SAUS45 KABQ 271853
MTRABQ
METAR KABQ 271852Z 18004KT 10SM BKN080 10/M03 A3035 RMK AO2 SLP259
T01001028





000
SAUS45 KABQ 271754
MTRTCS
METAR KTCS 271753Z AUTO 00000KT 10SM CLR 13/M02 A3034 RMK AO2 SLP238
T01331017 10133 20056 58001 TSNO





000
SAUS45 KABQ 271754
MTRCQC
METAR KCQC 271753Z AUTO 29014KT 10SM CLR 11/M03 A3035 RMK AO2 SLP233
T01061033 10111 20011 51001





000
SAUS45 KABQ 271753
MTRABQ
METAR KABQ 271752Z 00000KT 10SM FEW060 BKN080 07/M02 A3038 RMK AO2
SLP274 T00721022 10078 21028 53002





000
SAUS45 KABQ 271656 COR
MTRTCS
METAR KTCS 271653Z AUTO 20003KT 10SM CLR 10/M01 A3036 RMK AO2 SLP252
T01001011 TSNO





000
SAUS45 KABQ 271655 COR
MTRTCS
METAR KTCS 271653Z AUTO 20003KT 10SM CLR 10/M01 A3036 RMK AO2 SLP252
T01001011 TSNO





000
SAUS45 KABQ 271654
MTRTCS
METAR KTCS 271653Z AUTO 20003KT 10SM CLR 10/M01 A3036 RMK AO2 SLP252
T01001011 TSNO





000
SAUS45 KABQ 271654
MTRCQC
METAR KCQC 271653Z AUTO 29011KT 10SM CLR 09/M03 A3035 RMK AO2 SLP238
T00891033





000
SAUS45 KABQ 271653
MTRABQ
METAR KABQ 271652Z 00000KT 10SM FEW070 SCT085 06/M02 A3038 RMK AO2
SLP283 T00561022





000
SAUS45 KABQ 271554
MTRTCS
METAR KTCS 271553Z AUTO 00000KT 10SM OVC080 08/M01 A3035 RMK AO2
SLP249 T00831011 TSNO





000
SAUS45 KABQ 271554
MTRCQC
METAR KCQC 271553Z AUTO 29008KT 10SM CLR 07/M03 A3035 RMK AO2 SLP246
T00721028





000
SAUS45 KABQ 271553
MTRABQ
METAR KABQ 271552Z 00000KT 10SM FEW065 FEW120 02/M03 A3038 RMK AO2
SLP278 T00221028





000
SAUS45 KABQ 271553
MTRABQ
METAR KABQ 271552Z 00000KT 10SM FEW065 FEW120 02/M03 A3038 RMK AO2
SLP278 T00221028





000
SAUS45 KABQ 271454
MTRTCS
METAR KTCS 271453Z AUTO 00000KT 10SM OVC080 06/M01 A3034 RMK AO2
SLP249 T00611011 53012 TSNO





000
SAUS45 KABQ 271454
MTRCQC
METAR KCQC 271453Z AUTO 30006KT 10SM CLR 03/M06 A3035 RMK AO2 SLP257
T00331056 53006





000
SAUS45 KABQ 271453
MTRABQ
METAR KABQ 271452Z 13006KT 10SM FEW150 SCT250 M02/M04 A3038 RMK AO2
SLP284 T10171044 53017





000
SAUS45 KABQ 271354
MTRCQC
METAR KCQC 271353Z AUTO 32008KT 10SM CLR 04/M06 A3034 RMK AO2 SLP250
T00391061





000
SAUS45 KABQ 271354
MTRTCS
METAR KTCS 271353Z AUTO 05004KT 10SM SCT041 OVC049 06/M01 A3033 RMK
AO2 SLP242 T00561006 TSNO





000
SAUS45 KABQ 271353
MTRABQ
METAR KABQ 271352Z 28006KT 10SM SCT250 01/M03 A3035 RMK AO2 SLP262
T00111033





000
SAUS45 KABQ 271254
MTRTCS
METAR KTCS 271253Z AUTO 00000KT 10SM BKN047 OVC065 06/M01 A3031 RMK
AO2 SLP231 T00611006 TSNO





000
SAUS45 KABQ 271254
MTRCQC
METAR KCQC 271253Z AUTO 30007KT 10SM CLR 03/M06 A3032 RMK AO2 SLP248
T00331061





000
SAUS45 KABQ 271253
MTRABQ
METAR KABQ 271252Z 01005KT 10SM FEW250 02/M03 A3032 RMK AO2 SLP251
T00171033





000
SAUS45 KABQ 271154
MTRTCS
METAR KTCS 271153Z AUTO 00000KT 10SM SCT044 BKN055 OVC075 07/M01
A3030 RMK AO2 SLP225 T00671011 10089 20050 53001 TSNO





000
SAUS45 KABQ 271154
MTRCQC
METAR KCQC 271153Z AUTO 28003KT 10SM CLR 02/M06 A3033 RMK AO2 SLP236
T00221056 10078 20017 56009





000
SAUS45 KABQ 271153
MTRABQ
METAR KABQ 271152Z 01009KT 10SM SCT250 02/M03 A3032 RMK AO2 SLP246
T00221033 10061 20011 58006





000
SAUS45 KABQ 271054
MTRCQC
METAR KCQC 271053Z AUTO 35007KT 10SM CLR 05/M06 A3033 RMK AO2 SLP227
T00501061





000
SAUS45 KABQ 271054
MTRTCS
METAR KTCS 271053Z AUTO 01003KT 10SM OVC060 06/M02 A3030 RMK AO2
SLP225 T00611017 TSNO





000
SAUS45 KABQ 271053
MTRABQ
METAR KABQ 271052Z 01003KT 10SM SCT250 03/M03 A3032 RMK AO2 SLP245
T00331028





000
SAUS45 KABQ 270954
MTRTCS
METAR KTCS 270953Z AUTO 35004KT 10SM FEW060 SCT120 06/M02 A3030 RMK
AO2 SLP225 T00561022 TSNO





000
SAUS45 KABQ 270954
MTRCQC
METAR KCQC 270953Z AUTO 32005KT 10SM CLR 06/M06 A3035 RMK AO2 SLP235
T00561061





000
SAUS45 KABQ 270954
MTRCQC
METAR KCQC 270953Z AUTO 32005KT 10SM CLR 06/M06 A3035 RMK AO2 SLP235
T00561061





000
SAUS45 KABQ 270954
MTRTCS
METAR KTCS 270953Z AUTO 35004KT 10SM FEW060 SCT120 06/M02 A3030 RMK
AO2 SLP225 T00561022 TSNO





000
SAUS45 KABQ 270953
MTRABQ
METAR KABQ 270952Z 35003KT 10SM FEW240 04/M03 A3034 RMK AO2 SLP248
T00391028





000
SAUS45 KABQ 270953
MTRABQ
METAR KABQ 270952Z 35003KT 10SM FEW240 04/M03 A3034 RMK AO2 SLP248
T00391028





000
SAUS45 KABQ 270854
MTRTCS
METAR KTCS 270853Z AUTO 32006KT 10SM CLR 06/M03 A3030 RMK AO2 SLP226
T00611033 56003 TSNO





000
SAUS45 KABQ 270854
MTRCQC
METAR KCQC 270853Z AUTO 31006KT 10SM CLR 02/M06 A3036 RMK AO2 SLP244
T00221056 58002





000
SAUS45 KABQ 270853
MTRABQ
METAR KABQ 270852Z 03004KT 10SM FEW240 03/M03 A3034 RMK AO2 SLP257
T00331033 50000





000
SAUS45 KABQ 270755
MTRCQC
METAR KCQC 270753Z AUTO 26006KT 10SM CLR 03/M05 A3036 RMK AO2 SLP243
T00331050





000
SAUS45 KABQ 270754
MTRTCS
METAR KTCS 270753Z AUTO 28006KT 10SM CLR 06/M03 A3031 RMK AO2 SLP231
T00561028 TSNO





000
SAUS45 KABQ 270753
MTRABQ
METAR KABQ 270752Z 13003KT 10SM CLR 03/M03 A3034 RMK AO2 SLP260
T00281033





000
SAUS45 KABQ 270654
MTRCQC
METAR KCQC 270653Z AUTO 28003KT 10SM CLR 05/M06 A3036 RMK AO2 SLP237
T00501061 401281028





000
SAUS45 KABQ 270654
MTRTCS
METAR KTCS 270653Z AUTO 34004KT 10SM CLR 08/M03 A3030 RMK AO2 SLP227
T00781028 401561006 TSNO





000
SAUS45 KABQ 270652
MTRABQ
METAR KABQ 270652Z 00000KT 10SM SCT250 04/M03 A3035 RMK AO2 SLP265
T00391028 401441011





000
SAUS45 KABQ 270554
MTRTCS
METAR KTCS 270553Z AUTO 31007KT 10SM CLR 08/M03 A3031 RMK AO2 SLP234
T00781028 10139 20067 50001 TSNO





000
SAUS45 KABQ 270554
MTRCQC
METAR KCQC 270553Z AUTO 00000KT 10SM CLR 07/M06 A3037 RMK AO2 SLP234
T00721061 10106 20044 58002





000
SAUS45 KABQ 270552
MTRABQ
METAR KABQ 270552Z 30003KT 10SM SCT250 06/M03 A3034 RMK AO2 SLP264
T00561028 10133 20028 51004





000
SAUS45 KABQ 270454
MTRTCS
METAR KTCS 270453Z AUTO 29007KT 10SM CLR 07/M02 A3031 RMK AO2 SLP241
T00721022 TSNO





000
SAUS45 KABQ 270454
MTRCQC
METAR KCQC 270453Z AUTO 20004KT 10SM CLR 06/M06 A3037 RMK AO2 SLP238
T00611056





000
SAUS45 KABQ 270454
MTRABQ
METAR KABQ 270452Z 19004KT 10SM FEW250 03/M03 A3034 RMK AO2 SLP273
T00331033





000
SAUS45 KABQ 270356 COR
MTRCQC
METAR KCQC 270353Z AUTO 20005KT 10SM CLR 06/M05 A3037 RMK AO2 SLP249
T00561050





000
SAUS45 KABQ 270355 COR
MTRCQC
METAR KCQC 270353Z AUTO 20005KT 10SM CLR 06/M05 A3037 RMK AO2 SLP249
T00561050





000
SAUS45 KABQ 270354
MTRCQC
METAR KCQC 270353Z AUTO 20005KT 10SM CLR 06/M05 A3037 RMK AO2 SLP249
T00561050





000
SAUS45 KABQ 270354
MTRTCS
METAR KTCS 270353Z AUTO 30007KT 10SM CLR 08/M02 A3031 RMK AO2 SLP245
T00781022 TSNO





000
SAUS45 KABQ 270353
MTRABQ
METAR KABQ 270352Z 00000KT 10SM SCT250 08/M02 A3034 RMK AO2 SLP264
T00781022





000
SAUS45 KABQ 270353
MTRABQ
METAR KABQ 270352Z 00000KT 10SM SCT250 08/M02 A3034 RMK AO2 SLP264
T00781022





000
SAUS45 KABQ 270254
MTRCQC
METAR KCQC 270253Z AUTO 18005KT 10SM CLR 06/M04 A3037 RMK AO2 SLP253
T00561039 50005





000
SAUS45 KABQ 270254
MTRTCS
METAR KTCS 270253Z AUTO 31007KT 10SM CLR 09/M03 A3031 RMK AO2 SLP247
T00891028 51010 TSNO





000
SAUS45 KABQ 270253
MTRABQ
METAR KABQ 270252Z 03008KT 10SM SCT250 09/M03 A3033 RMK AO2 SLP259
T00941028 53002





000
SAUS45 KABQ 270154
MTRTCS
METAR KTCS 270153Z AUTO 31004KT 10SM CLR 11/M03 A3031 RMK AO2 SLP240
T01111033 TSNO





000
SAUS45 KABQ 270154
MTRCQC
METAR KCQC 270153Z AUTO 18004KT 10SM CLR 06/M04 A3038 RMK AO2 SLP263
T00611039





000
SAUS45 KABQ 270153
MTRABQ
METAR KABQ 270152Z 36005KT 10SM SCT240 12/M03 A3033 RMK AO2 SLP256
T01171033





000
SAUS45 KABQ 270055
MTRCQC
METAR KCQC 270053Z AUTO 19008KT 10SM CLR 06/M03 A3037 RMK AO2 SLP271
T00561028





000
SAUS45 KABQ 270054
MTRTCS
METAR KTCS 270053Z AUTO 06003KT 10SM CLR 12/M03 A3029 RMK AO2 SLP234
T01221033 TSNO





000
SAUS45 KABQ 270053
MTRABQ
METAR KABQ 270052Z 04004KT 10SM SCT240 12/M03 A3032 RMK AO2 SLP250
T01171033





000
SAUS45 KABQ 262354
MTRTCS
METAR KTCS 262353Z AUTO 05004KT 10SM CLR 14/M04 A3027 RMK AO2 SLP227
T01391044 10156 20094 55001 TSNO





000
SAUS45 KABQ 262354
MTRCQC
METAR KCQC 262353Z AUTO 15008KT 10SM CLR 11/M03 A3035 RMK AO2 SLP250
T01061028 10128 20106 51005





000
SAUS45 KABQ 262353
MTRABQ
METAR KABQ 262352Z 00000KT 10SM SCT240 13/M03 A3032 RMK AO2 SLP250
T01331033 10144 20056 55002





000
SAUS45 KABQ 262255
MTRTCS
METAR KTCS 262253Z AUTO 11007KT 10SM CLR 15/M04 A3027 RMK AO2 SLP220
T01501044 TSNO





000
SAUS45 KABQ 262254
MTRCQC
METAR KCQC 262253Z AUTO 16008KT 10SM CLR 12/M02 A3035 RMK AO2 SLP248
T01171022





000
SAUS45 KABQ 262253
MTRABQ
METAR KABQ 262252Z 00000KT 10SM SCT240 13/M03 A3032 RMK AO2 SLP245
T01331033





000
SAUS45 KABQ 262154
MTRCQC
METAR KCQC 262153Z AUTO 11008KT 10SM CLR 11/M04 A3034 RMK AO2 SLP249
T01111044





000
SAUS45 KABQ 262154
MTRTCS
METAR KTCS 262153Z AUTO 12004KT 10SM CLR 14/M03 A3027 RMK AO2 SLP225
T01391033 TSNO





000
SAUS45 KABQ 262153
MTRABQ
METAR KABQ 262152Z VRB03KT 10SM BKN250 13/M03 A3032 RMK AO2 SLP245
T01331033





000
SAUS45 KABQ 262054
MTRCQC
METAR KCQC 262053Z AUTO 11008KT 10SM CLR 12/M04 A3034 RMK AO2 SLP247
T01221044 56012





000
SAUS45 KABQ 262054
MTRTCS
METAR KTCS 262053Z AUTO 00000KT 10SM CLR 14/M03 A3027 RMK AO2 SLP221
T01391033 56028 TSNO





000
SAUS45 KABQ 262053
MTRABQ
METAR KABQ 262052Z 20004KT 10SM BKN250 11/M04 A3033 RMK AO2 SLP256
T01111039 56020





000
SAUS45 KABQ 261954
MTRCQC
METAR KCQC 261953Z AUTO 11013KT 10SM CLR 12/M05 A3034 RMK AO2 SLP248
T01221050





000
SAUS45 KABQ 261954
MTRTCS
METAR KTCS 261953Z AUTO 05004KT 10SM CLR 13/M03 A3030 RMK AO2 SLP234
T01331028 TSNO





000
SAUS45 KABQ 261952
MTRABQ
METAR KABQ 261952Z 23004KT 10SM SCT250 10/M04 A3034 RMK AO2 SLP262
T01001039





000
SAUS45 KABQ 261854
MTRTCS
METAR KTCS 261853Z AUTO 03004KT 10SM CLR 12/M03 A3034 RMK AO2 SLP250
T01171033 TSNO





000
SAUS45 KABQ 261854
MTRCQC
METAR KCQC 261853Z AUTO 10011KT 10SM CLR 12/M06 A3037 RMK AO2 SLP253
T01221056





000
SAUS45 KABQ 261852
MTRABQ
METAR KABQ 261852Z 00000KT 10SM FEW250 08/M03 A3036 RMK AO2 SLP279
T00781033





000
SAUS45 KABQ 261755
MTRCQC
METAR KCQC 261753Z AUTO 10011KT 10SM CLR 12/M06 A3038 RMK AO2 SLP259
T01171056 10122 20000 53010





000
SAUS45 KABQ 261754
MTRTCS
METAR KTCS 261753Z AUTO VRB04KT 10SM CLR 09/M03 A3037 RMK AO2 SLP266
T00941028 10094 21006 51007 TSNO





000
SAUS45 KABQ 261752
MTRABQ
METAR KABQ 261752Z 00000KT 10SM FEW250 06/M03 A3040 RMK AO2 SLP285
T00561033 10061 21006 50006





000
SAUS45 KABQ 261655
MTRCQC
METAR KCQC 261653Z AUTO 09010KT 10SM CLR 11/M06 A3036 RMK AO2 SLP256
T01111061





000
SAUS45 KABQ 261654
MTRTCS
METAR KTCS 261653Z AUTO 04005KT 10SM CLR 07/M03 A3037 RMK AO2 SLP265
T00721033 TSNO





000
SAUS45 KABQ 261652
MTRABQ
METAR KABQ 261652Z 00000KT 10SM FEW250 03/M03 A3040 RMK AO2 SLP286
T00331033





000
SAUS45 KABQ 261554
MTRCQC
METAR KCQC 261553Z AUTO 08007KT 10SM CLR 09/M06 A3035 RMK AO2 SLP259
T00891061





000
SAUS45 KABQ 261554
MTRTCS
METAR KTCS 261553Z AUTO 00000KT 10SM CLR 03/M04 A3036 RMK AO2 SLP261
T00281039 TSNO





000
SAUS45 KABQ 261553
MTRABQ
METAR KABQ 261552Z 27004KT 10SM FEW250 02/M04 A3039 RMK AO2 SLP287
T00171039





000
SAUS45 KABQ 261455
MTRTCS
METAR KTCS 261453Z AUTO VRB03KT 10SM CLR 01/M04 A3035 RMK AO2 SLP261
T00111044 52008 TSNO





000
SAUS45 KABQ 261454
MTRCQC
METAR KCQC 261453Z AUTO 07005KT 10SM CLR 07/M07 A3034 RMK AO2 SLP255
T00721072 53005





000
SAUS45 KABQ 261453
MTRABQ
METAR KABQ 261452Z 02004KT 10SM FEW250 01/M04 A3038 RMK AO2 SLP283
T00111044 52007





000
SAUS45 KABQ 261354
MTRCQC
METAR KCQC 261353Z AUTO 05007KT 10SM CLR 03/M08 A3033 RMK AO2 SLP255
T00331078





000
SAUS45 KABQ 261354
MTRTCS
METAR KTCS 261353Z AUTO 33005KT 10SM CLR 02/M05 A3034 RMK AO2 SLP255
T00171050 TSNO





000
SAUS45 KABQ 261353
MTRABQ
METAR KABQ 261352Z 02007KT 10SM FEW250 00/M05 A3037 RMK AO2 SLP278
T00001050





000
SAUS45 KABQ 261254
MTRCQC
METAR KCQC 261253Z AUTO 34005KT 10SM CLR 01/M06 A3033 RMK AO2 SLP256
T00061061





000
SAUS45 KABQ 261254
MTRTCS
METAR KTCS 261253Z AUTO 33006KT 10SM CLR 01/M06 A3033 RMK AO2 SLP251
T00061056 TSNO





000
SAUS45 KABQ 261253
MTRABQ
METAR KABQ 261252Z 01009KT 10SM CLR 01/M04 A3036 RMK AO2 SLP269
T00111044





000
SAUS45 KABQ 261155
MTRTCS
METAR KTCS 261153Z AUTO 29005KT 10SM CLR 00/M05 A3032 RMK AO2 SLP243
T00001050 10039 21006 51006 TSNO





000
SAUS45 KABQ 261154
MTRCQC
METAR KCQC 261153Z AUTO 34010KT 10SM CLR 01/M06 A3032 RMK AO2 SLP248
T00111056 10011 21028 51003





000
SAUS45 KABQ 261153
MTRABQ
METAR KABQ 261152Z 36011KT 10SM CLR 01/M04 A3035 RMK AO2 SLP262
T00061044 10039 21011 58000





000
SAUS45 KABQ 261054
MTRCQC
METAR KCQC 261053Z AUTO 32010KT 10SM CLR 01/M06 A3032 RMK AO2 SLP245
T00061061





000
SAUS45 KABQ 261054
MTRTCS
METAR KTCS 261053Z AUTO 35005KT 10SM CLR 01/M05 A3032 RMK AO2 SLP241
T00111050 TSNO





000
SAUS45 KABQ 261053
MTRABQ
METAR KABQ 261052Z 36008KT 10SM CLR 02/M04 A3035 RMK AO2 SLP260
T00221044





000
SAUS45 KABQ 260954
MTRCQC
METAR KCQC 260953Z AUTO 32010KT 10SM CLR 00/M07 A3032 RMK AO2 SLP247
T00001067





000
SAUS45 KABQ 260954
MTRTCS
METAR KTCS 260953Z AUTO 33005KT 10SM CLR 01/M06 A3031 RMK AO2 SLP238
T00111056 TSNO





000
SAUS45 KABQ 260953
MTRABQ
METAR KABQ 260952Z 01007KT 10SM CLR 02/M04 A3036 RMK AO2 SLP265
T00171039





000
SAUS45 KABQ 260854
MTRTCS
METAR KTCS 260853Z AUTO 29003KT 10SM CLR 03/M06 A3030 RMK AO2 SLP232
T00331061 55000 TSNO





000
SAUS45 KABQ 260854
MTRCQC
METAR KCQC 260853Z AUTO 31012KT 10SM CLR M01/M07 A3031 RMK AO2
SLP247 T10111072 55004





000
SAUS45 KABQ 260852
MTRABQ
METAR KABQ 260852Z 04005KT 10SM CLR 01/M04 A3035 RMK AO2 SLP267
T00061044 53001





000
SAUS45 KABQ 260754
MTRTCS
METAR KTCS 260753Z AUTO 30007KT 10SM CLR 02/M06 A3029 RMK AO2 SLP234
T00171056 TSNO





000
SAUS45 KABQ 260754
MTRCQC
METAR KCQC 260753Z AUTO 30009KT 10SM CLR M02/M07 A3031 RMK AO2
SLP253 T10171072





000
SAUS45 KABQ 260752
MTRABQ
METAR KABQ 260752Z 00000KT 10SM CLR 01/M05 A3034 RMK AO2 SLP265
T00111050





000
SAUS45 KABQ 260654
MTRCQC
METAR KCQC 260653Z AUTO 23012KT 10SM CLR M01/M07 A3032 RMK AO2
SLP257 T10061072 400941061





000
SAUS45 KABQ 260654
MTRTCS
METAR KTCS 260653Z AUTO 30007KT 10SM CLR 02/M05 A3030 RMK AO2 SLP240
T00221050 401501022 TSNO





000
SAUS45 KABQ 260653
MTRABQ
METAR KABQ 260652Z 15004KT 10SM CLR 00/M05 A3034 RMK AO2 SLP272
T00001050 401331039





000
SAUS45 KABQ 260554
MTRCQC
METAR KCQC 260553Z AUTO 26005KT 10SM CLR 00/M07 A3033 RMK AO2 SLP266
T00001067 10072 21011 53015





000
SAUS45 KABQ 260554
MTRTCS
METAR KTCS 260553Z AUTO 30005KT 10SM CLR 02/M06 A3030 RMK AO2 SLP245
T00221056 10144 20017 50008 TSNO





000
SAUS45 KABQ 260553
MTRABQ
METAR KABQ 260552Z 00000KT 10SM CLR 04/M04 A3035 RMK AO2 SLP266
T00391044 10122 20028 53020





000
SAUS45 KABQ 260454
MTRTCS
METAR KTCS 260453Z AUTO 29006KT 10SM CLR 04/M06 A3031 RMK AO2 SLP247
T00441056 TSNO





000
SAUS45 KABQ 260454
MTRCQC
METAR KCQC 260453Z AUTO 24007KT 10SM CLR M01/M07 A3030 RMK AO2
SLP266 T10061067





000
SAUS45 KABQ 260453
MTRABQ
METAR KABQ 260452Z 01006KT 10SM CLR 06/M04 A3032 RMK AO2 SLP258
T00611044





000
SAUS45 KABQ 260401 COR
MTRCQC
METAR KCQC 260353Z AUTO 33004KT 10SM CLR M01/M07 A3028 RMK AO2
SLP263 T10061067





000
SAUS45 KABQ 260359 COR
MTRCQC
METAR KCQC 260353Z AUTO 33004KT 10SM CLR M01/M07 A3028 RMK AO2
SLP263 T10061067





000
SAUS45 KABQ 260358 COR
MTRCQC
METAR KCQC 260353Z AUTO 33004KT 10SM CLR M01/M07 A3028 RMK AO2
SLP263 T10061067





000
SAUS45 KABQ 260356 COR
MTRCQC
METAR KCQC 260353Z AUTO 33004KT 10SM CLR M01/M07 A3028 RMK AO2
SLP263 T10061067





000
SAUS45 KABQ 260355 COR
MTRCQC
METAR KCQC 260353Z AUTO 33004KT 10SM CLR M01/M07 A3028 RMK AO2
SLP263 T10061067





000
SAUS45 KABQ 260354
MTRCQC
METAR KCQC 260353Z AUTO 33004KT 10SM CLR M01/M07 A3028 RMK AO2
SLP263 T10061067





000
SAUS45 KABQ 260354
MTRTCS
METAR KTCS 260353Z AUTO 00000KT 10SM CLR 08/M04 A3030 RMK AO2 SLP243
T00831044 TSNO





000
SAUS45 KABQ 260353
MTRABQ
METAR KABQ 260352Z 00000KT 10SM CLR 06/M04 A3029 RMK AO2 SLP255
T00561044





000
SAUS45 KABQ 260259 COR
MTRCQC
METAR KCQC 260253Z AUTO 30006KT 10SM CLR 02/M06 A3027 RMK AO2 SLP268
T00171061 51011





000
SAUS45 KABQ 260258 COR
MTRCQC
METAR KCQC 260253Z AUTO 30006KT 10SM CLR 02/M06 A3027 RMK AO2 SLP268
T00171061 51011





000
SAUS45 KABQ 260256 COR
MTRCQC
METAR KCQC 260253Z AUTO 30006KT 10SM CLR 02/M06 A3027 RMK AO2 SLP268
T00171061 51011





000
SAUS45 KABQ 260255 COR
MTRCQC
METAR KCQC 260253Z AUTO 30006KT 10SM CLR 02/M06 A3027 RMK AO2 SLP268
T00171061 51011





000
SAUS45 KABQ 260254
MTRCQC
METAR KCQC 260253Z AUTO 30006KT 10SM CLR 02/M06 A3027 RMK AO2 SLP268
T00171061 51011





000
SAUS45 KABQ 260254
MTRTCS
METAR KTCS 260253Z AUTO 22005KT 10SM CLR 08/M06 A3027 RMK AO2 SLP239
T00831061 53018 TSNO





000
SAUS45 KABQ 260253
MTRABQ
METAR KABQ 260252Z 02006KT 10SM CLR 07/M04 A3028 RMK AO2 SLP254
T00671039 51011





000
SAUS45 KABQ 260203 COR
MTRCQC
METAR KCQC 260153Z AUTO 34006KT 10SM CLR 04/M06 A3026 RMK AO2 SLP258
T00391061





000
SAUS45 KABQ 260202 COR
MTRCQC
METAR KCQC 260153Z AUTO 34006KT 10SM CLR 04/M06 A3026 RMK AO2 SLP258
T00391061





000
SAUS45 KABQ 260201 COR
MTRCQC
METAR KCQC 260153Z AUTO 34006KT 10SM CLR 04/M06 A3026 RMK AO2 SLP258
T00391061





000
SAUS45 KABQ 260200 COR
MTRCQC
METAR KCQC 260153Z AUTO 34006KT 10SM CLR 04/M06 A3026 RMK AO2 SLP258
T00391061





000
SAUS45 KABQ 260159 COR
MTRCQC
METAR KCQC 260153Z AUTO 34006KT 10SM CLR 04/M06 A3026 RMK AO2 SLP258
T00391061





000
SAUS45 KABQ 260158 COR
MTRCQC
METAR KCQC 260153Z AUTO 34006KT 10SM CLR 04/M06 A3026 RMK AO2 SLP258
T00391061





000
SAUS45 KABQ 260156 COR
MTRCQC
METAR KCQC 260153Z AUTO 34006KT 10SM CLR 04/M06 A3026 RMK AO2 SLP258
T00391061





000
SAUS45 KABQ 260155 COR
MTRCQC
METAR KCQC 260153Z AUTO 34006KT 10SM CLR 04/M06 A3026 RMK AO2 SLP258
T00391061





000
SAUS45 KABQ 260154
MTRTCS
METAR KTCS 260153Z AUTO 17004KT 10SM CLR 09/M07 A3026 RMK AO2 SLP229
T00891067 TSNO





000
SAUS45 KABQ 260154
MTRTCS
METAR KTCS 260153Z AUTO 17004KT 10SM CLR 09/M07 A3026 RMK AO2 SLP229
T00891067 TSNO





000
SAUS45 KABQ 260154
MTRCQC
METAR KCQC 260153Z AUTO 34006KT 10SM CLR 04/M06 A3026 RMK AO2 SLP258
T00391061





000
SAUS45 KABQ 260154
MTRCQC
METAR KCQC 260153Z AUTO 34006KT 10SM CLR 04/M06 A3026 RMK AO2 SLP258
T00391061





000
SAUS45 KABQ 260153
MTRABQ
METAR KABQ 260152Z 34006KT 10SM FEW250 09/M04 A3028 RMK AO2 SLP250
T00891039





000
SAUS45 KABQ 260153
MTRABQ
METAR KABQ 260152Z 34006KT 10SM FEW250 09/M04 A3028 RMK AO2 SLP250
T00891039





000
SAUS45 KABQ 260103 COR
MTRCQC
METAR KCQC 260053Z AUTO 33005KT 10SM CLR 06/M06 A3025 RMK AO2 SLP247
T00561056





000
SAUS45 KABQ 260102 COR
MTRCQC
METAR KCQC 260053Z AUTO 33005KT 10SM CLR 06/M06 A3025 RMK AO2 SLP247
T00561056





000
SAUS45 KABQ 260100 COR
MTRCQC
METAR KCQC 260053Z AUTO 33005KT 10SM CLR 06/M06 A3025 RMK AO2 SLP247
T00561056





000
SAUS45 KABQ 260059 COR
MTRCQC
METAR KCQC 260053Z AUTO 33005KT 10SM CLR 06/M06 A3025 RMK AO2 SLP247
T00561056





000
SAUS45 KABQ 260058 COR
MTRCQC
METAR KCQC 260053Z AUTO 33005KT 10SM CLR 06/M06 A3025 RMK AO2 SLP247
T00561056





000
SAUS45 KABQ 260056 COR
MTRCQC
METAR KCQC 260053Z AUTO 33005KT 10SM CLR 06/M06 A3025 RMK AO2 SLP247
T00561056





000
SAUS45 KABQ 260055
MTRCQC
METAR KCQC 260053Z AUTO 33005KT 10SM CLR 06/M06 A3025 RMK AO2 SLP247
T00561056





000
SAUS45 KABQ 260054
MTRTCS
METAR KTCS 260053Z AUTO 00000KT 10SM CLR 12/M08 A3022 RMK AO2 SLP212
T01171078 TSNO





000
SAUS45 KABQ 260053
MTRABQ
METAR KABQ 260052Z 00000KT 10SM FEW250 10/M06 A3025 RMK AO2 SLP240
T01001061





000
SAUS45 KABQ 260001 COR
MTRCQC
METAR KCQC 252353Z AUTO 31010KT 10SM CLR 07/M04 A3023 RMK AO2 SLP232
T00721044 10094 20028 51009





000
SAUS45 KABQ 252359 COR
MTRCQC
METAR KCQC 252353Z AUTO 31010KT 10SM CLR 07/M04 A3023 RMK AO2 SLP232
T00721044 10094 20028 51009





000
SAUS45 KABQ 252358 COR
MTRCQC
METAR KCQC 252353Z AUTO 31010KT 10SM CLR 07/M04 A3023 RMK AO2 SLP232
T00721044 10094 20028 51009





000
SAUS45 KABQ 252356 COR
MTRCQC
METAR KCQC 252353Z AUTO 31010KT 10SM CLR 07/M04 A3023 RMK AO2 SLP232
T00721044 10094 20028 51009





000
SAUS45 KABQ 252355 COR
MTRCQC
METAR KCQC 252353Z AUTO 31010KT 10SM CLR 07/M04 A3023 RMK AO2 SLP232
T00721044 10094 20028 51009





000
SAUS45 KABQ 252354
MTRTCS
METAR KTCS 252353Z AUTO 07004KT 10SM CLR 14/M08 A3021 RMK AO2 SLP205
T01441078 10150 20078 55004 TSNO





000
SAUS45 KABQ 252354
MTRCQC
METAR KCQC 252353Z AUTO 31010KT 10SM CLR 07/M04 A3023 RMK AO2 SLP232
T00721044 10094 20028 51009





000
SAUS45 KABQ 252353
MTRABQ
METAR KABQ 252352Z 27003KT 10SM FEW250 12/M06 A3024 RMK AO2 SLP230
T01221061 10133 20061 56005





000
SAUS45 KABQ 252254
MTRCQC
METAR KCQC 252253Z AUTO 28009KT 10SM CLR 09/M04 A3022 RMK AO2 SLP218
T00891044





000
SAUS45 KABQ 252254
MTRTCS
METAR KTCS 252253Z AUTO VRB04KT 10SM CLR 14/M07 A3021 RMK AO2 SLP206
T01441072 TSNO





000
SAUS45 KABQ 252253
MTRABQ
METAR KABQ 252252Z 22003KT 10SM FEW250 12/M06 A3024 RMK AO2 SLP228
T01171061





000
SAUS45 KABQ 252154
MTRCQC
METAR KCQC 252153Z AUTO 30014KT 10SM CLR 09/M06 A3021 RMK AO2 PK WND
30027/2109 SLP219 T00891056





000
SAUS45 KABQ 252154
MTRTCS
METAR KTCS 252153Z AUTO 00000KT 10SM CLR 14/M07 A3022 RMK AO2 SLP211
T01391072 TSNO





000
SAUS45 KABQ 252153
MTRABQ
METAR KABQ 252152Z 00000KT 10SM FEW200 12/M06 A3025 RMK AO2 SLP235
T01171061





000
SAUS45 KABQ 252153
MTRABQ
METAR KABQ 252152Z 00000KT 10SM FEW200 12/M06 A3025 RMK AO2 SLP235
T01171061





000
SAUS45 KABQ 252054
MTRTCS
METAR KTCS 252053Z AUTO 00000KT 10SM CLR 13/M08 A3022 RMK AO2 SLP208
T01281078 56024 TSNO





000
SAUS45 KABQ 252054
MTRCQC
METAR KCQC 252053Z AUTO 30020G25KT 10SM CLR 08/M04 A3020 RMK AO2
SLP218 T00831044 56016





000
SAUS45 KABQ 252053
MTRABQ
METAR KABQ 252052Z 00000KT 10SM FEW200 11/M06 A3026 RMK AO2 SLP234
T01061061 56023





000
SAUS45 KABQ 251954
MTRTCS
METAR KTCS 251953Z AUTO 04005KT 10SM CLR 12/M07 A3024 RMK AO2 SLP219
T01171072 TSNO





000
SAUS45 KABQ 251954
MTRCQC
METAR KCQC 251953Z AUTO 29017KT 10SM CLR 07/M04 A3021 RMK AO2 SLP223
T00671044





000
SAUS45 KABQ 251953
MTRABQ
METAR KABQ 251952Z 19003KT 10SM FEW200 09/M06 A3028 RMK AO2 SLP242
T00891061





000
SAUS45 KABQ 251854
MTRTCS
METAR KTCS 251853Z AUTO VRB03KT 10SM CLR 10/M07 A3028 RMK AO2 SLP240
T01001067 TSNO





000
SAUS45 KABQ 251854
MTRCQC
METAR KCQC 251853Z AUTO 30018KT 10SM CLR 06/M06 A3024 RMK AO2 SLP234
T00561056





000
SAUS45 KABQ 251853
MTRABQ
METAR KABQ 251852Z 25003KT 10SM FEW200 07/M07 A3031 RMK AO2 SLP253
T00721067





000
SAUS45 KABQ 251755
MTRTCS
METAR KTCS 251753Z AUTO 05004KT 10SM CLR 08/M06 A3031 RMK AO2 SLP251
T00781056 10078 21011 51011 TSNO





000
SAUS45 KABQ 251754
MTRCQC
METAR KCQC 251753Z AUTO 30016KT 10SM CLR 03/M06 A3026 RMK AO2 SLP246
T00281061 10028 21061 50006





000
SAUS45 KABQ 251753
MTRABQ
METAR KABQ 251752Z 33005KT 10SM FEW200 07/M07 A3034 RMK AO2 SLP264
T00671072 10067 21033 51010





000
SAUS45 KABQ 251654
MTRCQC
METAR KCQC 251653Z AUTO 30011KT 10SM CLR 01/M07 A3026 RMK AO2 SLP250
T00061072





000
SAUS45 KABQ 251654
MTRTCS
METAR KTCS 251653Z AUTO 02007KT 10SM CLR 06/M05 A3031 RMK AO2 SLP255
T00561050 TSNO





000
SAUS45 KABQ 251653
MTRABQ
METAR KABQ 251652Z 32005KT 10SM FEW200 04/M07 A3033 RMK AO2 SLP266
T00391067





000
SAUS45 KABQ 251554
MTRCQC
METAR KCQC 251553Z AUTO 30016KT 10SM CLR M01/M08 A3025 RMK AO2
SLP254 T10061083





000
SAUS45 KABQ 251554
MTRTCS
METAR KTCS 251553Z AUTO 34003KT 10SM CLR 02/M05 A3029 RMK AO2 SLP251
T00221050 TSNO





000
SAUS45 KABQ 251553
MTRABQ
METAR KABQ 251552Z 32005KT 10SM FEW200 01/M07 A3032 RMK AO2 SLP269
T00111067





000
SAUS45 KABQ 251454
MTRTCS
METAR KTCS 251453Z AUTO 00000KT 10SM CLR M01/M06 A3027 RMK AO2
SLP250 T10111056 53018 TSNO





000
SAUS45 KABQ 251454
MTRCQC
METAR KCQC 251453Z AUTO 26007KT 10SM CLR M05/M11 A3023 RMK AO2
SLP258 T10501106 52010





000
SAUS45 KABQ 251453
MTRABQ
METAR KABQ 251452Z 05004KT 10SM FEW200 M01/M07 A3030 RMK AO2 SLP264
T10111067 51011





000
SAUS45 KABQ 251354
MTRTCS
METAR KTCS 251353Z AUTO 35004KT 10SM CLR 01/M06 A3024 RMK AO2 SLP232
T00061056 TSNO





000
SAUS45 KABQ 251354
MTRCQC
METAR KCQC 251353Z AUTO 30011KT 10SM CLR M05/M11 A3023 RMK AO2
SLP256 T10501106





000
SAUS45 KABQ 251353
MTRABQ
METAR KABQ 251352Z 07003KT 10SM FEW200 M03/M08 A3029 RMK AO2 SLP262
T10281078





000
SAUS45 KABQ 251254
MTRCQC
METAR KCQC 251253Z AUTO 30009KT 10SM CLR M05/M11 A3020 RMK AO2
SLP243 T10501106





000
SAUS45 KABQ 251254
MTRTCS
METAR KTCS 251253Z AUTO 35004KT 10SM CLR M01/M06 A3022 RMK AO2
SLP223 T10061061 TSNO





000
SAUS45 KABQ 251253
MTRABQ
METAR KABQ 251252Z 01005KT 10SM FEW200 M02/M07 A3027 RMK AO2 SLP250
T10221072





000
SAUS45 KABQ 251202 COR
MTRCQC
METAR KCQC 251153Z AUTO 31009KT 10SM CLR M04/M09 A3019 RMK AO2
SLP234 T10441094 11006 21044 55000





000
SAUS45 KABQ 251201 COR
MTRCQC
METAR KCQC 251153Z AUTO 31009KT 10SM CLR M04/M09 A3019 RMK AO2
SLP234 T10441094 11006 21044 55000





000
SAUS45 KABQ 251159 COR
MTRCQC
METAR KCQC 251153Z AUTO 31009KT 10SM CLR M04/M09 A3019 RMK AO2
SLP234 T10441094 11006 21044 55000





000
SAUS45 KABQ 251158 COR
MTRCQC
METAR KCQC 251153Z AUTO 31009KT 10SM CLR M04/M09 A3019 RMK AO2
SLP234 T10441094 11006 21044 55000





000
SAUS45 KABQ 251156 COR
MTRCQC
METAR KCQC 251153Z AUTO 31009KT 10SM CLR M04/M09 A3019 RMK AO2
SLP234 T10441094 11006 21044 55000





000
SAUS45 KABQ 251155 COR
MTRCQC
METAR KCQC 251153Z AUTO 31009KT 10SM CLR M04/M09 A3019 RMK AO2
SLP234 T10441094 11006 21044 55000





000
SAUS45 KABQ 251154
MTRCQC
METAR KCQC 251153Z AUTO 31009KT 10SM CLR M04/M09 A3019 RMK AO2
SLP234 T10441094 11006 21044 55000





000
SAUS45 KABQ 251154
MTRTCS
METAR KTCS 251153Z AUTO 31007KT 10SM CLR M01/M06 A3021 RMK AO2
SLP211 T10061061 10028 21022 58007 TSNO





000
SAUS45 KABQ 251153
MTRABQ
METAR KABQ 251152Z 00000KT 10SM FEW200 M03/M07 A3026 RMK AO2 SLP245
T10281072 10039 21039 57001





000
SAUS45 KABQ 251054
MTRCQC
METAR KCQC 251053Z AUTO 31010KT 10SM CLR M02/M09 A3020 RMK AO2
SLP224 T10221089





000
SAUS45 KABQ 251054
MTRTCS
METAR KTCS 251053Z AUTO 31008KT 10SM CLR M01/M06 A3022 RMK AO2
SLP216 T10111061 TSNO





000
SAUS45 KABQ 251053
MTRABQ
METAR KABQ 251052Z 13004KT 10SM FEW200 M01/M07 A3025 RMK AO2 SLP238
T10111072





000
SAUS45 KABQ 250954
MTRTCS
METAR KTCS 250953Z AUTO 24005KT 10SM CLR M02/M08 A3025 RMK AO2
SLP229 T10171078 TSNO





000
SAUS45 KABQ 250954
MTRCQC
METAR KCQC 250953Z AUTO 32011KT 10SM CLR M04/M09 A3019 RMK AO2
SLP225 T10391089





000
SAUS45 KABQ 250954
MTRCQC
METAR KCQC 250953Z AUTO 32011KT 10SM CLR M04/M09 A3019 RMK AO2
SLP225 T10391089





000
SAUS45 KABQ 250954
MTRTCS
METAR KTCS 250953Z AUTO 24005KT 10SM CLR M02/M08 A3025 RMK AO2
SLP229 T10171078 TSNO





000
SAUS45 KABQ 250953
MTRABQ
METAR KABQ 250952Z 08003KT 10SM CLR M03/M07 A3027 RMK AO2 SLP248
T10281072





000
SAUS45 KABQ 250953
MTRABQ
METAR KABQ 250952Z 08003KT 10SM CLR M03/M07 A3027 RMK AO2 SLP248
T10281072





000
SAUS45 KABQ 250854
MTRTCS
METAR KTCS 250853Z AUTO 35006KT 10SM CLR 02/M07 A3023 RMK AO2 SLP216
T00221072 53002 TSNO





000
SAUS45 KABQ 250854
MTRCQC
METAR KCQC 250853Z AUTO 30012KT 10SM CLR M04/M09 A3019 RMK AO2
SLP230 T10391089 51008





000
SAUS45 KABQ 250853
MTRABQ
METAR KABQ 250852Z 00000KT 10SM CLR 00/M07 A3026 RMK AO2 SLP241
T00001072 50003





000
SAUS45 KABQ 250755
MTRTCS
METAR KTCS 250753Z AUTO 35007KT 10SM CLR 01/M07 A3022 RMK AO2 SLP218
T00061067 TSNO





000
SAUS45 KABQ 250754
MTRCQC
METAR KCQC 250753Z AUTO 30011KT 10SM CLR M03/M08 A3019 RMK AO2
SLP229 T10281083





000
SAUS45 KABQ 250753
MTRABQ
METAR KABQ 250752Z 04004KT 10SM CLR 02/M08 A3027 RMK AO2 SLP242
T00221078





000
SAUS45 KABQ 250654
MTRCQC
METAR KCQC 250653Z AUTO 30014KT 10SM CLR M02/M08 A3019 RMK AO2
SLP231 T10221078 400441100





000
SAUS45 KABQ 250654
MTRTCS
METAR KTCS 250653Z AUTO 30006KT 10SM CLR M01/M07 A3021 RMK AO2
SLP221 T10111067 401171044 TSNO





000
SAUS45 KABQ 250653
MTRABQ
METAR KABQ 250652Z 35012KT 10SM CLR 04/M08 A3026 RMK AO2 SLP239
T00391078 401061050





000
SAUS45 KABQ 250554
MTRTCS
METAR KTCS 250553Z AUTO 00000KT 10SM CLR 00/M07 A3022 RMK AO2 SLP224
T00001067 10106 21006 51008 TSNO





000
SAUS45 KABQ 250554
MTRCQC
METAR KCQC 250553Z AUTO 31018KT 10SM CLR M01/M07 A3016 RMK AO2
SLP218 T10061072 10028 21011 51009





000
SAUS45 KABQ 250553
MTRABQ
METAR KABQ 250552Z 36005KT 10SM CLR 03/M07 A3025 RMK AO2 SLP242
T00331072 10100 20028 53005





000
SAUS45 KABQ 250454
MTRCQC
METAR KCQC 250453Z AUTO 31018KT 10SM CLR 01/M07 A3016 RMK AO2 SLP220
T00061072





000
SAUS45 KABQ 250454
MTRTCS
METAR KTCS 250453Z AUTO 28004KT 10SM CLR 00/M06 A3022 RMK AO2 SLP229
T00001061 TSNO





000
SAUS45 KABQ 250453
MTRABQ
METAR KABQ 250452Z 03004KT 10SM FEW250 04/M07 A3024 RMK AO2 SLP244
T00391072





    US Dept of Commerce
    National Oceanic and Atmospheric Administration
    National Weather Service
    1325 East West Highway
    Silver Spring, MD 20910
    Page Author: NWS Internet Services Team
Disclaimer
Information Quality
Credits
Glossary
Privacy Policy
Freedom of Information Act (FOIA)
About Us
Career Opportunities